createdAt,value
2019-03-26T00:02:19.134Z,55.33
2019-03-26T00:07:23.283Z,59.83
2019-03-26T00:12:28.330Z,49.60
2019-03-26T00:17:33.275Z,56.35
2019-03-26T00:22:37.725Z,57.90
2019-03-26T00:27:43.251Z,56.28
2019-03-26T00:32:48.465Z,49.77
2019-03-26T00:37:52.597Z,53.23
2019-03-26T00:42:58.125Z,49.35
2019-03-26T00:48:02.468Z,47.00
2019-03-26T00:53:08.118Z,52.35
2019-03-26T00:58:13.328Z,55.90
2019-03-26T01:03:17.483Z,47.80
2019-03-26T01:08:22.279Z,62.90
2019-03-26T01:13:26.709Z,53.00
2019-03-26T01:18:31.427Z,48.68
2019-03-26T01:23:35.984Z,57.33
2019-03-26T01:28:44.792Z,43.83
2019-03-26T01:33:49.719Z,52.53
2019-03-26T01:38:53.844Z,47.50
2019-03-26T01:43:59.598Z,53.55
2019-03-26T01:49:04.393Z,35.35
2019-03-26T01:54:11.682Z,53.58
2019-03-26T01:59:20.100Z,48.90
2019-03-26T02:04:25.125Z,27.55
2019-03-26T02:09:30.825Z,46.18
2019-03-26T02:14:35.965Z,53.00
2019-03-26T02:19:40.890Z,46.90
2019-03-26T02:24:45.329Z,56.18
2019-03-26T02:29:51.222Z,59.00
2019-03-26T02:34:56.542Z,47.70
2019-03-26T02:40:00.774Z,56.08
2019-03-26T02:45:05.699Z,41.23
2019-03-26T02:50:10.484Z,91.32
2019-03-26T02:55:16.777Z,36.77
2019-03-26T03:00:21.885Z,47.07
2019-03-26T03:05:34.928Z,52.23
2019-03-26T03:10:34.890Z,60.38
2019-03-26T03:15:39.425Z,68.10
2019-03-26T03:21:03.430Z,73.67
2019-03-26T03:26:07.624Z,60.35
2019-03-26T03:31:12.645Z,54.95
2019-03-26T03:36:18.261Z,62.25
2019-03-26T03:41:22.968Z,52.40
2019-03-26T03:46:29.953Z,42.08
2019-03-26T03:51:37.930Z,61.33
2019-03-26T03:56:44.069Z,63.40
2019-03-26T04:01:48.241Z,69.37
2019-03-26T04:06:52.611Z,60.73
2019-03-26T04:11:57.326Z,54.25
2019-03-26T04:17:01.478Z,44.90
2019-03-26T04:22:06.381Z,59.30
2019-03-26T04:27:11.148Z,47.30
2019-03-26T04:32:15.280Z,24.55
2019-03-26T04:37:20.038Z,39.73
2019-03-26T04:42:24.180Z,41.37
2019-03-26T04:47:29.404Z,54.23
2019-03-26T04:52:34.413Z,66.07
2019-03-26T04:57:39.461Z,54.70
2019-03-26T05:02:44.468Z,52.13
2019-03-26T05:07:50.108Z,52.10
2019-03-26T05:12:54.297Z,46.35
2019-03-26T05:17:59.510Z,58.15
2019-03-26T05:23:03.728Z,45.70
2019-03-26T05:28:07.872Z,60.60
2019-03-26T05:33:12.888Z,33.60
2019-03-26T05:38:16.988Z,27.10
2019-03-26T05:43:21.124Z,22.60
2019-03-26T05:48:26.815Z,31.45
2019-03-26T05:53:31.895Z,48.33
2019-03-26T05:58:36.174Z,31.62
2019-03-26T06:03:40.729Z,39.85
2019-03-26T06:08:45.154Z,32.38
2019-03-26T06:13:49.287Z,21.05
2019-03-26T06:18:54.494Z,23.10
2019-03-26T06:23:59.044Z,39.05
2019-03-26T06:29:03.977Z,45.35
2019-03-26T06:34:10.637Z,22.82
2019-03-26T06:39:14.879Z,9.03
2019-03-26T06:44:19.057Z,32.48
2019-03-26T06:49:24.385Z,18.00
2019-03-26T06:54:29.001Z,34.25
2019-03-26T06:59:33.933Z,33.55
2019-03-26T07:04:45.236Z,34.85
2019-03-26T07:09:49.397Z,38.55
2019-03-26T07:14:54.367Z,37.08
2019-03-26T07:19:58.942Z,21.70
2019-03-26T07:25:06.086Z,67.82
2019-03-26T07:30:15.851Z,53.00
2019-03-26T07:35:21.459Z,28.42
2019-03-26T07:40:25.601Z,19.02
2019-03-26T07:45:49.818Z,52.33
2019-03-26T07:50:55.689Z,33.45
2019-03-26T07:56:00.597Z,32.08
2019-03-26T08:01:05.102Z,31.82
2019-03-26T08:06:10.071Z,41.40
2019-03-26T08:11:14.627Z,26.10
2019-03-26T08:16:19.114Z,16.73
2019-03-26T08:21:23.350Z,30.12
2019-03-26T08:26:27.425Z,21.95
2019-03-26T08:31:35.437Z,33.78
2019-03-26T08:36:40.453Z,38.35
2019-03-26T08:41:44.546Z,20.17
2019-03-26T08:46:48.902Z,29.48
2019-03-26T08:51:54.354Z,36.08
2019-03-26T08:56:58.462Z,10.58
2019-03-26T09:02:03.798Z,12.65
2019-03-26T09:07:10.925Z,29.42
2019-03-26T09:12:15.320Z,16.27
2019-03-26T09:17:20.088Z,23.50
2019-03-26T09:22:24.319Z,9.78
2019-03-26T09:27:28.699Z,24.30
2019-03-26T09:32:35.417Z,8.15
2019-03-26T09:37:39.626Z,10.65
2019-03-26T09:42:43.752Z,19.80
2019-03-26T09:47:48.101Z,24.23
2019-03-26T09:52:52.223Z,21.23
2019-03-26T09:57:57.135Z,20.20
2019-03-26T10:03:01.434Z,13.45
2019-03-26T10:08:05.691Z,17.67
2019-03-26T10:13:10.244Z,21.23
2019-03-26T10:18:16.190Z,20.17
2019-03-26T10:23:20.637Z,18.87
2019-03-26T10:28:26.092Z,22.13
2019-03-26T10:33:30.204Z,19.50
2019-03-26T10:38:34.334Z,20.32
2019-03-26T10:43:40.019Z,13.40
2019-03-26T10:48:44.439Z,22.87
2019-03-26T10:53:48.603Z,19.00
2019-03-26T10:58:52.798Z,19.40
2019-03-26T11:03:57.965Z,22.60
2019-03-26T11:09:03.158Z,18.73
2019-03-26T11:14:08.886Z,24.23
2019-03-26T11:19:13.185Z,16.97
2019-03-26T11:24:17.362Z,24.52
2019-03-26T11:29:23.311Z,9.70
2019-03-26T11:34:27.428Z,14.03
2019-03-26T11:39:33.558Z,13.15
2019-03-26T11:44:37.823Z,9.48
2019-03-26T11:49:42.775Z,10.53
2019-03-26T11:54:47.016Z,7.78
2019-03-26T11:59:51.240Z,4.65
2019-03-26T12:04:56.174Z,7.75
2019-03-26T12:10:00.497Z,5.55
2019-03-26T12:15:05.677Z,7.00
2019-03-26T12:20:09.895Z,6.55
2019-03-26T12:25:15.961Z,7.60
2019-03-26T12:30:33.381Z,6.00
2019-03-26T12:35:38.385Z,6.75
2019-03-26T12:40:44.241Z,6.17
2019-03-26T12:45:49.039Z,9.78
2019-03-26T12:50:53.251Z,6.10
2019-03-26T12:55:59.045Z,6.85
2019-03-26T13:01:04.289Z,5.00
2019-03-26T13:06:10.217Z,2.60
2019-03-26T13:11:16.902Z,5.20
2019-03-26T13:16:20.362Z,4.17
2019-03-26T13:21:24.903Z,3.80
2019-03-26T13:26:29.807Z,10.70
2019-03-26T13:31:34.125Z,3.70
2019-03-26T13:36:38.219Z,10.82
2019-03-26T13:41:43.207Z,8.43
2019-03-26T13:46:48.186Z,9.78
2019-03-26T13:51:52.378Z,6.05
2019-03-26T13:56:57.511Z,10.25
2019-03-26T14:02:01.646Z,9.88
2019-03-26T14:07:07.096Z,9.45
2019-03-26T14:12:12.091Z,7.40
2019-03-26T14:17:16.687Z,13.70
2019-03-26T14:22:20.800Z,13.72
2019-03-26T14:27:24.932Z,8.53
2019-03-26T14:32:29.053Z,11.00
2019-03-26T14:37:33.190Z,13.40
2019-03-26T14:42:39.193Z,14.47
2019-03-26T14:47:44.338Z,14.50
2019-03-26T14:52:48.581Z,11.20
2019-03-26T14:57:53.850Z,18.42
2019-03-26T15:02:57.953Z,11.65
2019-03-26T15:08:02.297Z,12.03
2019-03-26T15:13:06.447Z,6.97
2019-03-26T15:18:12.166Z,11.60
2019-03-26T15:23:16.375Z,11.20
2019-03-26T15:28:20.765Z,21.77
2019-03-26T15:33:25.625Z,27.50
2019-03-26T15:38:30.692Z,11.33
2019-03-26T15:43:35.752Z,22.90
2019-03-26T15:48:40.009Z,28.60
2019-03-26T15:53:44.129Z,26.42
2019-03-26T15:58:48.265Z,27.17
2019-03-26T16:03:52.531Z,29.80
2019-03-26T16:08:57.783Z,19.25
2019-03-26T16:14:01.923Z,21.40
2019-03-26T16:19:06.051Z,9.65
2019-03-26T16:24:10.846Z,10.18
2019-03-26T16:29:15.119Z,10.63
2019-03-26T16:34:20.099Z,6.53
2019-03-26T16:39:24.220Z,7.47
2019-03-26T16:44:28.348Z,2.95
2019-03-26T16:49:34.183Z,4.05
2019-03-26T16:54:38.323Z,4.30
2019-03-26T16:59:44.207Z,8.78
2019-03-26T17:04:48.351Z,4.42
2019-03-26T17:09:52.470Z,3.22
2019-03-26T17:14:56.602Z,3.27
2019-03-26T17:20:01.461Z,1.87
2019-03-26T17:25:06.902Z,2.42
2019-03-26T17:30:11.226Z,3.20
2019-03-26T17:35:15.407Z,3.67
2019-03-26T17:40:20.948Z,8.63
2019-03-26T17:45:25.195Z,5.30
2019-03-26T17:50:29.499Z,7.85
2019-03-26T17:55:34.493Z,8.28
2019-03-26T18:00:42.777Z,18.80
2019-03-26T18:05:46.996Z,16.30
2019-03-26T18:10:51.023Z,3.12
2019-03-26T18:15:55.180Z,4.08
2019-03-26T18:20:59.524Z,3.60
2019-03-26T18:26:06.092Z,7.10
2019-03-26T18:31:10.296Z,10.00
2019-03-26T18:36:14.417Z,11.05
2019-03-26T18:41:19.058Z,14.90
2019-03-26T18:46:23.247Z,10.55
2019-03-26T18:51:28.744Z,7.45
2019-03-26T18:56:33.141Z,16.35
2019-03-26T19:01:38.539Z,11.57
2019-03-26T19:06:42.884Z,7.40
2019-03-26T19:11:47.714Z,7.17
2019-03-26T19:16:51.738Z,12.25
2019-03-26T19:21:57.568Z,13.10
2019-03-26T19:27:04.241Z,13.72
2019-03-26T19:32:09.604Z,17.75
2019-03-26T19:37:13.835Z,11.12
2019-03-26T19:42:18.307Z,12.50
2019-03-26T19:47:22.299Z,17.57
2019-03-26T19:52:26.274Z,13.83
2019-03-26T19:57:30.556Z,12.35
2019-03-26T20:02:34.707Z,21.68
2019-03-26T20:07:39.103Z,19.95
2019-03-26T20:12:45.047Z,11.20
2019-03-26T20:17:50.138Z,7.62
2019-03-26T20:22:54.257Z,16.42
2019-03-26T20:27:58.434Z,12.18
2019-03-26T20:33:02.898Z,12.85
2019-03-26T20:38:07.323Z,12.28
2019-03-26T20:43:12.200Z,21.62
2019-03-26T20:48:17.176Z,13.58
2019-03-26T20:53:27.693Z,10.98
2019-03-26T20:58:32.260Z,17.50
2019-03-26T21:03:36.502Z,15.00
2019-03-26T21:08:41.025Z,15.53
2019-03-26T21:13:50.878Z,4.25
2019-03-26T21:18:51.970Z,15.63
2019-03-26T21:23:56.071Z,8.40
2019-03-26T21:29:00.200Z,11.80
2019-03-26T21:34:04.549Z,14.03
2019-03-26T21:39:09.033Z,11.15
2019-03-26T21:44:15.773Z,10.78
2019-03-26T21:49:20.744Z,11.65
2019-03-26T21:54:25.123Z,8.43
2019-03-26T21:59:29.526Z,9.98
2019-03-26T22:04:34.212Z,15.53
2019-03-26T22:09:38.387Z,5.70
2019-03-26T22:14:42.512Z,3.72
2019-03-26T22:19:46.650Z,13.10
2019-03-26T22:24:50.798Z,10.18
2019-03-26T22:29:55.063Z,12.78
2019-03-26T22:34:59.993Z,12.98
2019-03-26T22:40:07.336Z,10.70
2019-03-26T22:45:13.422Z,12.33
2019-03-26T22:50:18.264Z,14.25
2019-03-26T22:55:22.400Z,8.28
2019-03-26T23:00:29.033Z,10.55
2019-03-26T23:05:53.090Z,5.30
2019-03-26T23:11:10.175Z,10.08
2019-03-26T23:16:15.073Z,9.15
2019-03-26T23:21:20.123Z,14.65
2019-03-26T23:26:24.837Z,27.77
2019-03-26T23:31:29.332Z,30.45
2019-03-26T23:36:33.669Z,23.83
2019-03-26T23:41:39.787Z,15.45
2019-03-26T23:46:43.990Z,25.05
2019-03-26T23:51:48.455Z,15.43
2019-03-26T23:56:52.887Z,18.05
